createdAt,value
2018-01-22T00:00:09.117Z,10.57
2018-01-22T00:02:15.361Z,8.60
2018-01-22T00:04:21.170Z,8.17
2018-01-22T00:06:30.966Z,10.20
2018-01-22T00:08:38.055Z,8.37
2018-01-22T00:10:47.941Z,8.43
2018-01-22T00:12:55.429Z,8.23
2018-01-22T00:15:02.708Z,8.63
2018-01-22T00:17:09.524Z,7.50
2018-01-22T00:19:18.103Z,7.83
2018-01-22T00:21:28.142Z,7.20
2018-01-22T00:23:36.463Z,7.73
2018-01-22T00:25:43.264Z,7.87
2018-01-22T00:27:50.759Z,8.97
2018-01-22T00:29:57.530Z,7.20
2018-01-22T00:32:03.720Z,8.00
2018-01-22T00:34:11.803Z,7.60
2018-01-22T00:36:19.968Z,8.80
2018-01-22T00:38:29.928Z,8.07
2018-01-22T00:40:37.448Z,7.70
2018-01-22T00:42:44.189Z,7.40
2018-01-22T00:44:51.852Z,7.83
2018-01-22T00:46:59.744Z,6.73
2018-01-22T00:49:08.744Z,6.97
2018-01-22T00:51:17.485Z,6.30
2018-01-22T00:53:26.800Z,7.67
2018-01-22T00:55:33.695Z,7.23
2018-01-22T00:57:40.890Z,7.50
2018-01-22T00:59:49.281Z,8.00
2018-01-22T01:01:55.322Z,7.83
2018-01-22T01:04:01.329Z,7.00
2018-01-22T01:06:07.032Z,6.70
2018-01-22T01:08:12.727Z,7.13
2018-01-22T01:10:19.392Z,7.20
2018-01-22T01:12:28.506Z,7.37
2018-01-22T01:14:34.177Z,6.87
2018-01-22T01:16:40.108Z,7.20
2018-01-22T01:18:45.873Z,6.90
2018-01-22T01:20:51.705Z,6.43
2018-01-22T01:22:57.835Z,6.83
2018-01-22T01:25:04.034Z,7.10
2018-01-22T01:27:09.770Z,6.60
2018-01-22T01:29:15.943Z,6.97
2018-01-22T01:31:21.606Z,6.33
2018-01-22T01:33:29.409Z,7.37
2018-01-22T01:35:35.626Z,7.17
2018-01-22T01:37:41.308Z,6.83
2018-01-22T01:39:46.962Z,7.00
2018-01-22T01:41:52.757Z,6.30
2018-01-22T01:43:58.420Z,6.20
2018-01-22T01:46:04.163Z,6.80
2018-01-22T01:48:10.123Z,7.13
2018-01-22T01:50:15.773Z,6.30
2018-01-22T01:52:22.056Z,6.67
2018-01-22T01:54:32.237Z,6.60
2018-01-22T01:56:38.311Z,7.93
2018-01-22T01:58:44.397Z,6.30
2018-01-22T02:00:51.042Z,7.53
2018-01-22T02:02:56.907Z,7.13
2018-01-22T02:05:03.514Z,6.30
2018-01-22T02:07:11.087Z,7.73
2018-01-22T02:09:16.928Z,7.23
2018-01-22T02:11:26.220Z,7.47
2018-01-22T02:13:31.978Z,6.90
2018-01-22T02:15:37.900Z,6.57
2018-01-22T02:17:44.363Z,7.30
2018-01-22T02:19:52.251Z,7.30
2018-01-22T02:21:58.927Z,7.03
2018-01-22T02:24:05.653Z,7.40
2018-01-22T02:26:12.898Z,7.37
2018-01-22T02:28:19.464Z,7.27
2018-01-22T02:30:29.097Z,7.20
2018-01-22T02:32:34.688Z,7.70
2018-01-22T02:34:40.550Z,6.37
2018-01-22T02:36:46.630Z,7.67
2018-01-22T02:38:52.990Z,7.23
2018-01-22T02:40:59.445Z,8.40
2018-01-22T02:43:05.490Z,7.43
2018-01-22T02:45:11.431Z,7.70
2018-01-22T02:47:17.162Z,7.90
2018-01-22T02:49:23.285Z,8.23
2018-01-22T02:51:31.474Z,7.77
2018-01-22T02:53:37.207Z,8.03
2018-01-22T02:55:45.057Z,6.63
2018-01-22T02:57:53.012Z,8.73
2018-01-22T03:00:00.469Z,9.37
2018-01-22T03:02:06.293Z,7.47
2018-01-22T03:04:12.019Z,7.90
2018-01-22T03:06:17.662Z,7.87
2018-01-22T03:08:23.254Z,7.23
2018-01-22T03:10:31.778Z,8.03
2018-01-22T03:12:37.487Z,7.57
2018-01-22T03:14:43.188Z,8.13
2018-01-22T03:16:49.128Z,8.17
2018-01-22T03:18:55.493Z,7.83
2018-01-22T03:21:01.054Z,8.67
2018-01-22T03:23:07.239Z,7.50
2018-01-22T03:25:12.904Z,7.07
2018-01-22T03:27:18.381Z,7.80
2018-01-22T03:29:26.146Z,7.50
2018-01-22T03:31:31.749Z,8.70
2018-01-22T03:33:43.190Z,7.97
2018-01-22T03:35:48.979Z,8.47
2018-01-22T03:37:54.991Z,7.73
2018-01-22T03:40:00.871Z,8.10
2018-01-22T03:42:06.445Z,7.47
2018-01-22T03:44:12.503Z,7.87
2018-01-22T03:46:18.694Z,7.63
2018-01-22T03:48:27.317Z,7.57
2018-01-22T03:50:33.242Z,7.67
2018-01-22T03:52:38.942Z,9.27
2018-01-22T03:54:45.590Z,8.63
2018-01-22T03:56:52.006Z,7.70
2018-01-22T03:58:59.630Z,7.23
2018-01-22T04:01:05.503Z,8.00
2018-01-22T04:03:11.785Z,7.73
2018-01-22T04:05:17.883Z,7.40
2018-01-22T04:07:23.502Z,7.30
2018-01-22T04:09:30.998Z,7.07
2018-01-22T04:11:36.730Z,6.90
2018-01-22T04:13:42.363Z,7.80
2018-01-22T04:15:48.086Z,7.60
2018-01-22T04:17:54.006Z,6.90
2018-01-22T04:19:59.682Z,7.57
2018-01-22T04:22:05.489Z,7.07
2018-01-22T04:24:12.712Z,6.60
2018-01-22T04:26:18.367Z,6.40
2018-01-22T04:28:28.948Z,6.33
2018-01-22T04:30:34.675Z,6.53
2018-01-22T04:32:41.599Z,6.23
2018-01-22T04:34:47.252Z,6.27
2018-01-22T04:36:56.121Z,5.13
2018-01-22T04:39:02.686Z,6.00
2018-01-22T04:41:08.434Z,6.67
2018-01-22T04:43:14.094Z,5.93
2018-01-22T04:45:21.357Z,6.33
2018-01-22T04:47:29.730Z,6.30
2018-01-22T04:49:35.661Z,5.57
2018-01-22T04:51:41.854Z,6.13
2018-01-22T04:53:47.750Z,6.07
2018-01-22T04:55:56.520Z,5.50
2018-01-22T04:58:09.576Z,5.60
2018-01-22T05:00:50.041Z,5.33
2018-01-22T05:03:04.749Z,5.50
2018-01-22T05:05:14.251Z,5.20
2018-01-22T05:07:31.616Z,5.27
2018-01-22T05:09:40.386Z,4.90
2018-01-22T05:11:51.078Z,4.53
2018-01-22T05:13:58.202Z,5.10
2018-01-22T05:16:10.560Z,4.67
2018-01-22T05:18:19.253Z,4.50
2018-01-22T05:20:30.111Z,3.90
2018-01-22T05:22:35.909Z,4.50
2018-01-22T05:24:42.514Z,4.53
2018-01-22T05:26:49.026Z,4.27
2018-01-22T05:28:55.847Z,4.77
2018-01-22T05:31:02.741Z,4.30
2018-01-22T05:33:09.277Z,4.57
2018-01-22T05:35:16.411Z,4.23
2018-01-22T05:37:26.841Z,4.50
2018-01-22T05:39:34.738Z,4.10
2018-01-22T05:41:41.944Z,4.20
2018-01-22T05:43:49.219Z,4.30
2018-01-22T05:45:58.004Z,3.93
2018-01-22T05:48:05.995Z,4.03
2018-01-22T05:50:12.992Z,4.10
2018-01-22T05:52:19.411Z,3.77
2018-01-22T05:54:28.787Z,3.60
2018-01-22T05:56:35.396Z,3.03
2018-01-22T05:58:41.876Z,4.00
2018-01-22T06:00:48.102Z,3.70
2018-01-22T06:02:54.290Z,3.60
2018-01-22T06:05:00.586Z,3.77
2018-01-22T06:07:07.243Z,3.93
2018-01-22T06:09:15.863Z,3.87
2018-01-22T06:11:28.600Z,3.60
2018-01-22T06:13:36.646Z,3.47
2018-01-22T06:15:44.571Z,3.70
2018-01-22T06:17:50.478Z,3.10
2018-01-22T06:19:56.561Z,3.67
2018-01-22T06:22:02.946Z,3.77
2018-01-22T06:24:08.710Z,3.17
2018-01-22T06:26:16.233Z,3.53
2018-01-22T06:28:22.459Z,3.47
2018-01-22T06:30:28.450Z,3.50
2018-01-22T06:32:34.747Z,3.63
2018-01-22T06:34:41.787Z,4.00
2018-01-22T06:36:47.454Z,3.70
2018-01-22T06:38:53.464Z,3.97
2018-01-22T06:40:59.585Z,4.20
2018-01-22T06:43:07.407Z,3.80
2018-01-22T06:45:14.395Z,3.63
2018-01-22T06:47:20.798Z,3.37
2018-01-22T06:49:28.239Z,3.47
2018-01-22T06:51:34.154Z,3.90
2018-01-22T06:53:40.366Z,3.83
2018-01-22T06:55:47.342Z,3.40
2018-01-22T06:57:53.111Z,4.03
2018-01-22T07:00:00.201Z,3.80
2018-01-22T07:02:05.978Z,3.10
2018-01-22T07:04:11.687Z,4.27
2018-01-22T07:10:19.316Z,3.23
2018-01-22T07:12:26.374Z,2.87
2018-01-22T07:14:34.048Z,3.47
2018-01-22T07:16:42.506Z,2.80
2018-01-22T07:18:49.312Z,3.33
2018-01-22T07:20:55.058Z,3.03
2018-01-22T07:23:00.997Z,3.03
2018-01-22T07:25:07.378Z,3.23
2018-01-22T07:27:13.171Z,3.10
2018-01-22T07:29:18.839Z,3.90
2018-01-22T07:31:26.439Z,2.77
2018-01-22T07:33:33.323Z,4.27
2018-01-22T07:35:38.980Z,2.87
2018-01-22T07:37:44.933Z,4.73
2018-01-22T07:39:50.546Z,3.47
2018-01-22T07:41:57.081Z,3.60
2018-01-22T07:44:03.041Z,6.70
2018-01-22T07:46:09.051Z,3.47
2018-01-22T07:48:14.799Z,3.17
2018-01-22T07:50:21.724Z,16.97
2018-01-22T07:52:30.114Z,284.03
2018-01-22T07:54:35.802Z,385.87
2018-01-22T07:56:41.975Z,1089.50
2018-01-22T07:58:47.909Z,1795.60
2018-01-22T08:00:53.690Z,83.70
2018-01-22T08:02:59.626Z,205.53
2018-01-22T08:05:06.107Z,365.83
2018-01-22T08:07:12.267Z,24.63
2018-01-22T08:09:18.391Z,18.70
2018-01-22T08:11:26.097Z,22.93
2018-01-22T08:13:32.995Z,888.13
2018-01-22T08:15:38.831Z,30.00
2018-01-22T08:17:44.776Z,16.93
2018-01-22T08:19:51.125Z,9.57
2018-01-22T08:21:58.480Z,9.80
2018-01-22T08:24:05.252Z,829.40
2018-01-22T08:26:12.896Z,501.10
2018-01-22T08:28:38.810Z,1033.47
2018-01-22T08:30:51.177Z,1089.17
2018-01-22T08:35:31.550Z,212.20
2018-01-22T08:37:37.682Z,199.47
2018-01-22T08:39:46.038Z,218.70
2018-01-22T08:41:59.481Z,757.87
2018-01-22T08:44:05.802Z,859.23
2018-01-22T08:46:11.944Z,435.43
2018-01-22T08:48:17.916Z,1999.90
2018-01-22T08:50:26.054Z,399.83
2018-01-22T08:52:33.547Z,131.17
2018-01-22T08:54:40.654Z,48.47
2018-01-22T08:56:47.028Z,415.70
2018-01-22T08:58:53.226Z,480.93
2018-01-22T09:00:59.481Z,40.33
2018-01-22T09:03:06.418Z,92.73
2018-01-22T09:05:13.329Z,201.57
2018-01-22T09:07:19.189Z,73.00
2018-01-22T09:09:27.149Z,720.90
2018-01-22T09:11:34.229Z,390.27
2018-01-22T09:13:42.762Z,232.10
2018-01-22T09:15:56.566Z,184.60
2018-01-22T09:18:03.184Z,1171.57
2018-01-22T09:20:13.267Z,315.37
2018-01-22T09:22:18.981Z,209.23
2018-01-22T09:24:27.425Z,230.93
2018-01-22T09:26:33.535Z,1127.37
2018-01-22T09:28:41.233Z,1233.03
2018-01-22T09:30:47.978Z,372.97
2018-01-22T09:35:37.465Z,682.63
2018-01-22T09:37:43.706Z,259.47
2018-01-22T09:40:01.268Z,128.87
2018-01-22T09:42:09.932Z,1062.90
2018-01-22T09:47:53.213Z,49.43
2018-01-22T09:49:59.232Z,374.17
2018-01-22T09:52:07.122Z,74.80
2018-01-22T09:54:13.744Z,57.47
2018-01-22T09:56:19.974Z,69.60
2018-01-22T09:58:25.818Z,18.53
2018-01-22T10:00:35.797Z,377.73
2018-01-22T10:02:42.119Z,1011.03
2018-01-22T10:04:48.384Z,133.63
2018-01-22T10:06:56.612Z,40.40
2018-01-22T10:09:02.894Z,37.00
2018-01-22T10:11:09.141Z,13.80
2018-01-22T10:13:14.987Z,266.83
2018-01-22T10:15:21.501Z,112.77
2018-01-22T10:17:30.375Z,89.10
2018-01-22T10:19:36.804Z,126.10
2018-01-22T10:21:42.722Z,38.67
2018-01-22T10:23:48.463Z,239.77
2018-01-22T10:25:54.795Z,36.47
2018-01-22T10:28:21.232Z,20.37
2018-01-22T10:30:28.567Z,13.37
2018-01-22T10:32:35.469Z,16.90
2018-01-22T10:34:42.019Z,34.83
2018-01-22T10:36:50.152Z,51.93
2018-01-22T10:38:56.750Z,42.00
2018-01-22T10:41:04.349Z,42.40
2018-01-22T10:43:11.902Z,230.60
2018-01-22T10:45:18.947Z,61.30
2018-01-22T10:48:01.586Z,53.13
2018-01-22T10:50:37.351Z,91.40
2018-01-22T10:55:14.387Z,35.07
2018-01-22T10:57:21.603Z,42.57
2018-01-22T10:59:38.955Z,123.77
2018-01-22T11:01:52.233Z,201.27
2018-01-22T11:03:59.886Z,255.07
2018-01-22T11:06:15.663Z,91.80
2018-01-22T11:08:27.514Z,181.47
2018-01-22T11:10:37.753Z,36.33
2018-01-22T11:12:45.683Z,18.77
2018-01-22T11:14:54.376Z,8.80
2018-01-22T11:26:58.415Z,8.70
2018-01-22T11:29:34.394Z,55.00
2018-01-22T11:31:41.701Z,45.30
2018-01-22T11:33:51.066Z,211.50
2018-01-22T11:35:58.918Z,46.43
2018-01-22T11:38:23.176Z,46.93
2018-01-22T11:45:46.346Z,28.33
2018-01-22T11:47:52.424Z,85.80
2018-01-22T11:49:58.642Z,8.23
2018-01-22T11:52:09.609Z,5.20
2018-01-22T11:54:16.769Z,7.47
2018-01-22T11:56:22.934Z,11.53
2018-01-22T11:58:31.680Z,6.00
2018-01-22T12:00:37.736Z,11.80
2018-01-22T12:02:44.115Z,6.73
2018-01-22T12:05:11.523Z,23.40
2018-01-22T12:07:18.252Z,4.30
2018-01-22T12:09:29.065Z,4.10
2018-01-22T12:11:36.361Z,4.40
2018-01-22T12:13:42.633Z,236.00
2018-01-22T12:15:48.687Z,31.27
2018-01-22T12:17:54.981Z,16.10
2018-01-22T12:20:01.228Z,6.97
2018-01-22T12:22:07.269Z,8.70
2018-01-22T12:24:14.346Z,4.07
2018-01-22T12:26:20.123Z,17.70
2018-01-22T12:28:27.788Z,48.23
2018-01-22T12:30:34.903Z,14.17
2018-01-22T12:32:42.064Z,6.67
2018-01-22T12:34:49.679Z,3.43
2018-01-22T12:36:56.204Z,13.87
2018-01-22T12:39:04.748Z,618.63
2018-01-22T12:41:12.420Z,197.57
2018-01-22T12:43:18.333Z,58.33
2018-01-22T12:45:26.549Z,52.10
2018-01-22T12:47:32.263Z,26.87
2018-01-22T12:49:38.184Z,8.67
2018-01-22T12:51:44.648Z,1138.10
2018-01-22T12:53:50.463Z,515.30
2018-01-22T12:56:02.618Z,44.67
2018-01-22T12:58:12.701Z,182.63
2018-01-22T13:00:19.636Z,27.63
2018-01-22T13:02:29.349Z,31.20
2018-01-22T13:04:39.053Z,6.67
2018-01-22T13:06:47.021Z,5.63
2018-01-22T13:08:54.515Z,3.17
2018-01-22T13:11:00.558Z,3.50
2018-01-22T13:13:06.625Z,8.10
2018-01-22T13:15:15.162Z,25.83
2018-01-22T13:17:26.894Z,513.53
2018-01-22T13:19:40.945Z,14.70
2018-01-22T13:21:50.091Z,445.50
2018-01-22T13:24:01.751Z,105.37
2018-01-22T13:26:09.139Z,72.70
2018-01-22T13:28:15.420Z,97.70
2018-01-22T13:30:22.453Z,35.00
2018-01-22T13:32:33.719Z,104.47
2018-01-22T13:34:40.095Z,21.53
2018-01-22T13:36:46.234Z,239.60
2018-01-22T13:38:52.815Z,12.00
2018-01-22T13:41:02.995Z,80.23
2018-01-22T13:43:09.924Z,516.80
2018-01-22T13:45:16.777Z,20.23
2018-01-22T13:47:24.508Z,17.23
2018-01-22T13:49:30.287Z,5.33
2018-01-22T13:51:37.082Z,3.50
2018-01-22T13:53:51.329Z,4.17
2018-01-22T13:55:57.614Z,4.53
2018-01-22T13:58:05.678Z,355.13
2018-01-22T14:00:13.543Z,863.53
2018-01-22T14:02:20.478Z,110.90
2018-01-22T14:04:29.403Z,48.37
2018-01-22T14:06:36.684Z,20.50
2018-01-22T14:08:43.120Z,123.43
2018-01-22T14:10:49.067Z,954.17
2018-01-22T14:12:55.888Z,527.40
2018-01-22T14:15:02.055Z,13.03
2018-01-22T14:17:07.934Z,393.30
2018-01-22T14:19:14.896Z,266.80
2018-01-22T14:21:21.321Z,295.53
2018-01-22T14:23:29.364Z,671.77
2018-01-22T14:25:36.368Z,121.47
2018-01-22T14:27:43.505Z,386.13
2018-01-22T14:29:50.495Z,92.77
2018-01-22T14:31:58.651Z,996.87
2018-01-22T14:34:05.359Z,124.17
2018-01-22T14:36:12.551Z,129.47
2018-01-22T14:38:19.322Z,43.67
2018-01-22T14:40:24.999Z,15.57
2018-01-22T14:42:31.772Z,59.63
2018-01-22T14:44:40.858Z,10.10
2018-01-22T14:46:47.265Z,11.97
2018-01-22T14:48:53.167Z,38.23
2018-01-22T14:51:00.276Z,756.47
2018-01-22T14:53:07.482Z,18.30
2018-01-22T14:55:14.983Z,10.73
2018-01-22T14:57:22.228Z,3.00
2018-01-22T14:59:29.027Z,2.30
2018-01-22T15:01:35.268Z,2.90
2018-01-22T15:03:41.451Z,2.10
2018-01-22T15:05:48.373Z,2.20
2018-01-22T15:07:54.330Z,2.10
2018-01-22T15:10:00.950Z,1.80
2018-01-22T15:12:07.014Z,2.10
2018-01-22T15:14:14.131Z,2.07
2018-01-22T15:16:20.224Z,2.10
2018-01-22T15:18:25.946Z,1.90
2018-01-22T15:20:31.947Z,2.00
2018-01-22T15:22:39.756Z,1.90
2018-01-22T15:24:45.986Z,165.17
2018-01-22T15:26:53.016Z,20.40
2018-01-22T15:28:59.247Z,59.73
2018-01-22T15:31:07.108Z,11.33
2018-01-22T15:33:13.734Z,8.40
2018-01-22T15:35:20.088Z,347.83
2018-01-22T15:37:28.696Z,230.27
2018-01-22T15:39:36.035Z,514.80
2018-01-22T15:41:42.974Z,8.23
2018-01-22T15:43:50.423Z,817.87
2018-01-22T15:45:59.282Z,45.73
2018-01-22T15:48:11.940Z,17.47
2018-01-22T15:50:31.748Z,29.83
2018-01-22T15:52:40.150Z,52.73
2018-01-22T15:54:47.188Z,26.37
2018-01-22T15:56:52.751Z,9.87
2018-01-22T15:58:58.755Z,624.63
2018-01-22T16:01:05.715Z,5.07
2018-01-22T16:03:13.567Z,8.83
2018-01-22T16:05:20.550Z,3.40
2018-01-22T16:07:30.272Z,3.40
2018-01-22T16:09:39.494Z,99.47
2018-01-22T16:11:48.433Z,6.00
2018-01-22T16:13:56.820Z,7.57
2018-01-22T16:16:03.544Z,13.43
2018-01-22T16:18:11.686Z,226.73
2018-01-22T16:20:19.176Z,3.83
2018-01-22T16:22:28.528Z,131.77
2018-01-22T16:24:34.581Z,60.07
2018-01-22T16:26:41.190Z,9.57
2018-01-22T16:28:47.280Z,8.70
2018-01-22T16:30:53.174Z,8.53
2018-01-22T16:33:00.299Z,4.40
2018-01-22T16:37:32.412Z,2.63
2018-01-22T16:39:38.389Z,60.57
2018-01-22T16:41:44.162Z,956.97
2018-01-22T16:43:50.066Z,29.93
2018-01-22T16:45:56.750Z,9.73
2018-01-22T16:48:03.666Z,5.03
2018-01-22T16:50:12.552Z,13.00
2018-01-22T16:52:22.212Z,3.53
2018-01-22T16:54:53.429Z,37.53
2018-01-22T16:57:00.367Z,250.77
2018-01-22T16:59:11.522Z,38.87
2018-01-22T17:01:19.459Z,9.87
2018-01-22T17:06:05.692Z,38.30
2018-01-22T17:08:14.755Z,23.67
2018-01-22T17:10:27.600Z,41.23
2018-01-22T17:12:35.849Z,4.70
2018-01-22T17:14:42.904Z,123.80
2018-01-22T17:16:54.980Z,1061.77
2018-01-22T17:19:02.564Z,42.70
2018-01-22T17:21:08.812Z,14.50
2018-01-22T17:23:15.876Z,6.53
2018-01-22T17:25:24.195Z,4.50
2018-01-22T17:27:32.648Z,3.87
2018-01-22T17:29:39.259Z,3.90
2018-01-22T17:31:45.941Z,4.00
2018-01-22T17:33:52.361Z,3.57
2018-01-22T17:35:58.491Z,3.10
2018-01-22T17:38:05.419Z,4.47
2018-01-22T17:40:14.797Z,3.67
2018-01-22T17:44:35.980Z,4.40
2018-01-22T17:46:44.001Z,4.10
2018-01-22T17:48:51.737Z,3.53
2018-01-22T17:51:06.473Z,4.03
2018-01-22T17:53:12.802Z,3.80
2018-01-22T17:55:19.311Z,3.07
2018-01-22T17:57:25.564Z,4.07
2018-01-22T17:59:36.480Z,4.00
2018-01-22T18:01:43.672Z,4.37
2018-01-22T18:03:51.323Z,3.70
2018-01-22T18:06:00.645Z,4.27
2018-01-22T18:08:06.813Z,4.13
2018-01-22T18:10:16.924Z,3.90
2018-01-22T18:12:22.983Z,3.90
2018-01-22T18:14:30.909Z,4.17
2018-01-22T18:16:37.193Z,3.60
2018-01-22T18:18:47.044Z,4.10
2018-01-22T18:20:56.718Z,3.53
2018-01-22T18:23:05.406Z,3.77
2018-01-22T18:25:11.499Z,3.10
2018-01-22T18:27:17.818Z,3.33
2018-01-22T18:29:32.701Z,3.60
2018-01-22T18:31:44.416Z,3.93
2018-01-22T18:34:00.012Z,3.77
2018-01-22T18:36:07.143Z,3.73
2018-01-22T18:38:16.292Z,3.60
2018-01-22T18:40:23.199Z,3.90
2018-01-22T18:42:32.694Z,3.63
2018-01-22T18:44:43.460Z,3.90
2018-01-22T18:46:52.347Z,8.10
2018-01-22T18:49:01.941Z,3.93
2018-01-22T18:51:08.885Z,3.53
2018-01-22T18:53:15.301Z,3.33
2018-01-22T18:55:26.929Z,3.90
2018-01-22T18:57:32.885Z,3.70
2018-01-22T18:59:39.402Z,183.50
2018-01-22T19:01:46.635Z,660.87
2018-01-22T19:03:53.794Z,891.03
2018-01-22T19:06:01.179Z,547.10
2018-01-22T19:08:08.680Z,389.20
2018-01-22T19:10:15.351Z,324.77
2018-01-22T19:12:22.412Z,282.93
2018-01-22T19:17:00.379Z,264.20
2018-01-22T19:19:15.852Z,247.33
2018-01-22T19:21:22.201Z,241.03
2018-01-22T19:23:30.602Z,222.80
2018-01-22T19:25:36.546Z,211.80
2018-01-22T19:27:42.717Z,203.53
2018-01-22T19:29:49.388Z,199.80
2018-01-22T19:31:55.682Z,187.70
2018-01-22T19:34:01.904Z,183.27
2018-01-22T19:36:08.701Z,618.87
2018-01-22T19:38:15.619Z,925.00
2018-01-22T19:40:22.253Z,465.93
2018-01-22T19:42:30.274Z,523.03
2018-01-22T19:44:40.329Z,492.77
2018-01-22T19:46:47.544Z,505.13
2018-01-22T19:48:53.759Z,481.80
2018-01-22T19:50:59.883Z,463.80
2018-01-22T19:53:06.686Z,447.70
2018-01-22T19:55:22.791Z,433.80
2018-01-22T19:57:33.115Z,433.43
2018-01-22T19:59:41.673Z,410.20
2018-01-22T20:01:49.523Z,407.17
2018-01-22T20:03:57.827Z,389.83
2018-01-22T20:06:08.323Z,394.00
2018-01-22T20:08:15.281Z,377.23
2018-01-22T20:10:22.430Z,371.03
2018-01-22T20:12:34.899Z,741.67
2018-01-22T20:14:52.646Z,937.13
2018-01-22T20:17:08.395Z,755.57
2018-01-22T20:24:13.666Z,496.33
2018-01-22T20:26:28.919Z,523.77
2018-01-22T20:28:45.906Z,529.87
2018-01-22T20:31:00.964Z,517.27
2018-01-22T20:33:12.730Z,506.17
2018-01-22T20:37:56.774Z,489.77
2018-01-22T20:42:35.735Z,483.10
2018-01-22T20:44:43.353Z,474.93
2018-01-22T20:46:52.722Z,460.53
2018-01-22T20:49:03.367Z,458.03
2018-01-22T20:51:10.116Z,455.73
2018-01-22T20:53:18.129Z,441.60
2018-01-22T20:55:28.765Z,450.07
2018-01-22T20:57:36.775Z,447.97
2018-01-22T20:59:43.307Z,432.27
2018-01-22T21:01:53.513Z,423.30
2018-01-22T21:04:01.324Z,416.93
2018-01-22T21:06:07.450Z,414.70
2018-01-22T21:08:13.897Z,417.33
2018-01-22T21:10:20.844Z,398.57
2018-01-22T21:12:31.512Z,391.37
2018-01-22T21:14:37.413Z,385.47
2018-01-22T21:16:43.437Z,380.63
2018-01-22T21:18:51.002Z,363.67
2018-01-22T21:21:02.425Z,366.20
2018-01-22T21:23:10.198Z,458.93
2018-01-22T21:25:18.919Z,810.47
2018-01-22T21:27:30.848Z,623.33
2018-01-22T21:29:42.791Z,521.87
2018-01-22T21:31:51.258Z,511.33
2018-01-22T21:34:04.880Z,511.77
2018-01-22T21:36:14.624Z,517.23
2018-01-22T21:38:25.350Z,508.73
2018-01-22T21:40:34.973Z,502.87
2018-01-22T21:42:42.479Z,673.50
2018-01-22T21:44:50.219Z,720.63
2018-01-22T21:46:58.067Z,701.97
2018-01-22T21:49:04.148Z,708.47
2018-01-22T21:51:10.627Z,663.80
2018-01-22T21:53:16.491Z,651.80
2018-01-22T21:55:22.693Z,628.60
2018-01-22T21:57:33.077Z,634.63
2018-01-22T21:59:40.835Z,606.33
2018-01-22T22:01:47.104Z,600.40
2018-01-22T22:03:53.619Z,596.03
2018-01-22T22:05:59.658Z,577.87
2018-01-22T22:08:07.001Z,569.90
2018-01-22T22:10:13.895Z,557.77
2018-01-22T22:12:21.717Z,554.97
2018-01-22T22:14:32.281Z,544.13
2018-01-22T22:16:42.997Z,539.30
2018-01-22T22:18:55.498Z,527.30
2018-01-22T22:21:03.580Z,526.93
2018-01-22T22:23:10.964Z,521.10
2018-01-22T22:25:17.219Z,508.07
2018-01-22T22:27:31.714Z,508.20
2018-01-22T22:29:40.651Z,496.93
2018-01-22T22:31:46.456Z,490.13
2018-01-22T22:33:52.804Z,481.30
2018-01-22T22:36:00.660Z,479.10
2018-01-22T22:38:09.537Z,469.77
2018-01-22T22:40:17.290Z,475.13
2018-01-22T22:42:27.479Z,467.97
2018-01-22T22:44:35.062Z,463.30
2018-01-22T22:52:26.946Z,444.00
2018-01-22T22:54:34.287Z,442.13
2018-01-22T22:56:41.623Z,896.10
2018-01-22T22:58:48.687Z,981.90
2018-01-22T23:00:55.669Z,688.93
2018-01-22T23:03:03.644Z,549.07
2018-01-22T23:07:46.368Z,585.27
2018-01-22T23:09:52.375Z,585.30
2018-01-22T23:12:00.153Z,573.43
2018-01-22T23:14:06.829Z,574.67
2018-01-22T23:16:14.910Z,554.77
2018-01-22T23:18:21.384Z,555.60
2018-01-22T23:20:29.559Z,540.13
2018-01-22T23:22:36.621Z,536.67
2018-01-22T23:24:46.232Z,533.80
2018-01-22T23:26:57.578Z,526.47
2018-01-22T23:29:04.473Z,515.87
2018-01-22T23:31:10.764Z,514.57
2018-01-22T23:33:17.189Z,507.67
2018-01-22T23:35:23.339Z,698.10
2018-01-22T23:37:32.426Z,710.10
2018-01-22T23:39:42.479Z,696.13
2018-01-22T23:41:51.339Z,664.00
2018-01-22T23:43:58.333Z,652.50
2018-01-22T23:46:12.945Z,635.07
2018-01-22T23:48:20.081Z,626.50
2018-01-22T23:50:28.852Z,627.07
2018-01-22T23:52:36.434Z,618.87
2018-01-22T23:54:43.108Z,605.27
2018-01-22T23:56:56.266Z,594.30
2018-01-22T23:59:02.396Z,573.27
